createdAt,value
2019-05-17T00:01:27.151Z,14.87
2019-05-17T00:06:38.487Z,15.97
2019-05-17T00:11:52.919Z,17.00
2019-05-17T00:17:06.650Z,18.00
2019-05-17T00:22:47.081Z,18.27
2019-05-17T00:28:07.035Z,17.50
2019-05-17T00:33:09.321Z,17.07
2019-05-17T00:38:27.373Z,16.67
2019-05-17T00:55:23.535Z,17.47
2019-05-17T01:00:27.799Z,16.90
2019-05-17T01:05:30.447Z,17.37
2019-05-17T01:10:47.578Z,17.63
2019-05-17T01:15:52.240Z,15.47
2019-05-17T01:20:56.740Z,15.87
2019-05-17T01:26:12.017Z,16.73
2019-05-17T01:37:24.240Z,16.90
2019-05-17T01:42:30.332Z,17.17
2019-05-17T01:47:32.932Z,15.10
2019-05-17T01:52:42.458Z,15.13
2019-05-17T01:57:47.402Z,15.13
2019-05-17T02:02:53.760Z,14.43
2019-05-17T02:07:57.171Z,12.87
2019-05-17T02:19:07.923Z,14.00
2019-05-17T02:29:54.023Z,14.37
2019-05-17T02:40:35.584Z,12.80
2019-05-17T02:45:38.713Z,12.30
2019-05-17T02:50:43.154Z,12.97
2019-05-17T02:55:48.861Z,11.83
2019-05-17T03:06:53.494Z,11.80
2019-05-17T03:11:57.253Z,11.83
2019-05-17T03:17:03.170Z,10.57
2019-05-17T03:22:07.905Z,11.57
2019-05-17T03:27:08.911Z,9.03
2019-05-17T03:32:17.313Z,9.03
2019-05-17T03:37:17.961Z,9.13
2019-05-17T03:42:22.626Z,10.57
2019-05-17T03:47:24.664Z,11.50
2019-05-17T03:52:27.489Z,9.87
2019-05-17T03:57:32.326Z,9.27
2019-05-17T04:02:35.260Z,9.97
2019-05-17T04:07:37.771Z,10.67
2019-05-17T04:12:43.624Z,9.70
2019-05-17T04:17:45.691Z,9.20
2019-05-17T04:22:48.161Z,9.97
2019-05-17T04:27:53.662Z,9.50
2019-05-17T04:32:55.157Z,8.20
2019-05-17T04:37:58.880Z,10.67
2019-05-17T04:43:03.225Z,7.60
2019-05-17T04:48:05.510Z,7.57
2019-05-17T04:53:08.009Z,7.07
2019-05-17T04:58:13.442Z,8.43
2019-05-17T05:03:14.740Z,6.23
2019-05-17T05:08:17.134Z,7.87
2019-05-17T05:13:22.506Z,6.20
2019-05-17T05:18:23.847Z,7.23
2019-05-17T05:23:26.516Z,6.07
2019-05-17T05:28:28.968Z,7.23
2019-05-17T05:33:33.287Z,8.07
2019-05-17T05:38:35.692Z,7.70
2019-05-17T05:43:38.075Z,6.90
2019-05-17T05:48:41.583Z,8.50
2019-05-17T05:53:45.671Z,7.57
2019-05-17T05:58:48.479Z,10.43
2019-05-17T06:03:52.093Z,7.40
2019-05-17T06:08:55.275Z,9.10
2019-05-17T06:13:57.711Z,8.97
2019-05-17T06:19:02.409Z,8.07
2019-05-17T06:24:05.258Z,8.17
2019-05-17T06:29:07.951Z,8.97
2019-05-17T06:34:11.617Z,8.03
2019-05-17T06:39:14.199Z,8.17
2019-05-17T06:44:16.647Z,8.40
2019-05-17T06:49:22.271Z,8.30
2019-05-17T06:54:27.809Z,8.93
2019-05-17T06:59:30.547Z,9.13
2019-05-17T07:04:36.387Z,8.10
2019-05-17T07:09:40.072Z,8.33
2019-05-17T07:14:54.591Z,8.30
2019-05-17T07:19:59.778Z,9.03
2019-05-17T07:25:04.871Z,8.10
2019-05-17T07:30:09.915Z,7.57
2019-05-17T07:35:14.087Z,7.37
2019-05-17T07:40:16.935Z,7.30
2019-05-17T07:45:20.419Z,7.03
2019-05-17T07:50:22.967Z,6.37
2019-05-17T07:55:25.498Z,6.73
2019-05-17T08:00:30.405Z,7.93
2019-05-17T08:05:32.212Z,6.40
2019-05-17T08:10:34.599Z,6.10
2019-05-17T08:15:39.515Z,6.10
2019-05-17T08:20:41.344Z,5.57
2019-05-17T08:25:52.674Z,5.00
2019-05-17T08:30:50.149Z,4.87
2019-05-17T08:35:52.887Z,4.63
2019-05-17T08:40:55.384Z,4.47
2019-05-17T08:45:59.350Z,5.23
2019-05-17T08:51:02.324Z,5.37
2019-05-17T08:56:04.763Z,4.90
2019-05-17T09:01:10.948Z,4.30
2019-05-17T09:06:12.889Z,4.30
2019-05-17T09:11:15.728Z,5.20
2019-05-17T09:16:19.645Z,5.30
2019-05-17T09:21:24.488Z,5.30
2019-05-17T09:26:29.284Z,4.67
2019-05-17T09:31:31.315Z,4.83
2019-05-17T09:36:33.789Z,4.70
2019-05-17T09:41:36.183Z,4.77
2019-05-17T09:46:39.920Z,5.17
2019-05-17T09:51:43.473Z,5.40
2019-05-17T09:56:49.630Z,4.60
2019-05-17T10:01:53.731Z,4.87
2019-05-17T10:07:16.231Z,4.90
2019-05-17T10:12:20.357Z,5.00
2019-05-17T10:17:23.164Z,5.20
2019-05-17T10:22:26.760Z,5.33
2019-05-17T10:27:30.225Z,4.80
2019-05-17T10:32:33.246Z,3.53
2019-05-17T10:37:35.719Z,4.30
2019-05-17T10:42:39.548Z,3.70
2019-05-17T10:47:42.286Z,3.57
2019-05-17T10:52:45.136Z,3.30
2019-05-17T10:57:49.957Z,3.80
2019-05-17T11:02:53.600Z,3.90
2019-05-17T11:07:56.364Z,3.60
2019-05-17T11:12:58.757Z,3.40
2019-05-17T11:18:01.503Z,3.10
2019-05-17T11:23:04.140Z,4.20
2019-05-17T11:28:07.297Z,3.80
2019-05-17T11:33:25.343Z,3.90
2019-05-17T11:38:27.773Z,3.73
2019-05-17T11:44:13.625Z,3.35
2019-05-17T11:49:35.690Z,3.62
2019-05-17T11:55:11.887Z,3.90
2019-05-17T12:00:16.823Z,3.33
2019-05-17T12:11:22.089Z,2.75
2019-05-17T12:16:25.949Z,2.58
2019-05-17T12:21:28.799Z,3.17
2019-05-17T12:26:31.359Z,2.98
2019-05-17T12:31:33.836Z,3.42
2019-05-17T12:36:36.312Z,3.47
2019-05-17T12:41:38.775Z,3.17
2019-05-17T12:46:41.103Z,3.67
2019-05-17T12:51:46.436Z,2.98
2019-05-17T12:56:49.417Z,3.43
2019-05-17T13:01:52.599Z,3.25
2019-05-17T13:06:55.388Z,3.08
2019-05-17T13:12:01.538Z,3.40
2019-05-17T13:17:25.503Z,3.50
2019-05-17T13:22:28.096Z,2.85
2019-05-17T13:27:30.649Z,3.00
2019-05-17T13:32:33.089Z,3.15
2019-05-17T13:37:42.218Z,3.22
2019-05-17T13:43:12.472Z,3.15
2019-05-17T13:48:14.924Z,2.63
2019-05-17T13:53:17.376Z,3.12
2019-05-17T13:58:20.546Z,2.55
2019-05-17T14:03:23.979Z,2.60
2019-05-17T14:08:37.710Z,2.72
2019-05-17T14:19:29.951Z,2.40
2019-05-17T14:24:32.468Z,2.52
2019-05-17T14:29:35.045Z,2.85
2019-05-17T14:34:37.492Z,2.52
2019-05-17T14:39:39.904Z,2.98
2019-05-17T14:44:42.374Z,2.30
2019-05-17T14:49:44.787Z,2.37
2019-05-17T14:54:47.261Z,2.47
2019-05-17T14:59:49.631Z,2.30
2019-05-17T15:04:52.036Z,1.87
2019-05-17T15:09:54.471Z,1.90
2019-05-17T15:14:58.216Z,2.30
2019-05-17T15:20:00.909Z,2.10
2019-05-17T15:25:03.548Z,2.40
2019-05-17T15:30:06.294Z,2.33
2019-05-17T15:35:08.789Z,2.02
2019-05-17T15:40:11.136Z,2.00
2019-05-17T15:45:13.766Z,2.67
2019-05-17T15:50:16.356Z,7.67
2019-05-17T15:55:18.986Z,2.65
2019-05-17T16:00:22.353Z,2.35
2019-05-17T16:05:25.303Z,2.35
2019-05-17T16:10:27.636Z,2.12
2019-05-17T16:15:30.083Z,2.33
2019-05-17T16:20:32.619Z,2.42
2019-05-17T16:25:35.040Z,2.25
2019-05-17T16:30:37.587Z,2.12
2019-05-17T16:35:40.087Z,2.62
2019-05-17T16:40:42.559Z,2.17
2019-05-17T16:45:45.160Z,2.70
2019-05-17T16:50:49.204Z,2.30
2019-05-17T16:55:51.595Z,2.30
2019-05-17T17:00:54.800Z,2.30
2019-05-17T17:05:57.478Z,2.20
2019-05-17T17:11:00.896Z,2.10
2019-05-17T17:16:03.558Z,2.33
2019-05-17T17:21:06.090Z,2.30
2019-05-17T17:26:08.472Z,2.05
2019-05-17T17:31:15.564Z,2.40
2019-05-17T17:36:19.539Z,2.10
2019-05-17T17:41:22.175Z,2.35
2019-05-17T17:46:24.559Z,2.20
2019-05-17T17:51:27.024Z,1.90
2019-05-17T17:56:29.572Z,2.30
2019-05-17T18:01:32.203Z,2.17
2019-05-17T18:06:34.655Z,2.30
2019-05-17T18:11:38.332Z,2.23
2019-05-17T18:16:40.756Z,2.50
2019-05-17T18:21:43.188Z,3.20
2019-05-17T18:26:45.593Z,2.90
2019-05-17T18:31:48.110Z,2.47
2019-05-17T18:36:50.721Z,2.90
2019-05-17T18:41:54.830Z,3.77
2019-05-17T18:46:57.388Z,3.57
2019-05-17T18:52:00.537Z,3.60
2019-05-17T18:57:02.907Z,4.13
2019-05-17T19:02:05.212Z,3.00
2019-05-17T19:07:08.304Z,4.70
2019-05-17T19:12:11.811Z,3.50
2019-05-17T19:17:15.039Z,3.53
2019-05-17T19:22:18.116Z,3.40
2019-05-17T19:27:20.403Z,3.10
2019-05-17T19:32:42.292Z,3.90
2019-05-17T19:37:44.759Z,3.63
2019-05-17T19:42:47.474Z,3.10
2019-05-17T19:47:49.948Z,3.30
2019-05-17T19:52:53.710Z,3.53
2019-05-17T19:57:56.219Z,3.17
2019-05-17T20:03:00.632Z,3.47
2019-05-17T20:08:03.112Z,3.93
2019-05-17T20:13:05.679Z,4.27
2019-05-17T20:18:10.290Z,4.00
2019-05-17T20:23:13.094Z,3.97
2019-05-17T20:28:17.979Z,4.50
2019-05-17T20:33:22.624Z,4.00
2019-05-17T20:38:25.122Z,4.07
2019-05-17T20:43:31.788Z,4.23
2019-05-17T20:48:34.624Z,4.47
2019-05-17T20:53:37.296Z,3.90
2019-05-17T20:58:42.563Z,4.20
2019-05-17T21:03:46.108Z,5.03
2019-05-17T21:08:51.431Z,4.90
2019-05-17T21:13:55.060Z,4.53
2019-05-17T21:18:57.505Z,4.40
2019-05-17T21:23:59.955Z,4.63
2019-05-17T21:29:02.340Z,4.20
2019-05-17T21:34:04.861Z,4.67
2019-05-17T21:39:07.515Z,4.57
2019-05-17T21:44:09.920Z,4.70
2019-05-17T21:49:12.333Z,3.83
2019-05-17T21:54:14.934Z,4.70
2019-05-17T21:59:17.335Z,5.03
2019-05-17T22:04:19.683Z,4.10
2019-05-17T22:09:22.161Z,4.43
2019-05-17T22:14:24.646Z,3.57
2019-05-17T22:19:27.170Z,4.13
2019-05-17T22:24:29.575Z,4.27
2019-05-17T22:29:31.960Z,4.17
2019-05-17T22:34:34.463Z,2.97
2019-05-17T22:39:36.763Z,4.20
2019-05-17T22:44:39.328Z,3.03
2019-05-17T22:49:42.357Z,4.30
2019-05-17T22:54:44.733Z,4.57
2019-05-17T22:59:47.148Z,4.40
2019-05-17T23:04:49.523Z,3.67
2019-05-17T23:09:52.039Z,4.27
2019-05-17T23:14:54.399Z,4.63
2019-05-17T23:19:56.905Z,3.20
2019-05-17T23:24:59.315Z,4.40
2019-05-17T23:30:01.719Z,4.27
2019-05-17T23:35:04.883Z,4.70
2019-05-17T23:40:08.023Z,4.63
2019-05-17T23:45:11.629Z,4.90
2019-05-17T23:50:14.027Z,5.00
2019-05-17T23:55:16.448Z,3.50
